Time;durP1;ratioP1;P1;durP2;ratioP2;P2;SDS_P1;SDS_P2;PMS_P1;PMS_P2;Temp;Humidity;BMP_temperature;BMP_pressure;BME280_temperature;BME280_humidity;BME280_pressure;Samples;Min_cycle;Max_cycle;Signal;HPM_P1;HPM_P2
2022/02/01 00:00:41;;;;;;;3.87;2.07;;;5.30;90.90;;;;;;5082627;28;20224;-89
2022/02/01 00:03:08;;;;;;;2.13;1.70;;;5.40;90.50;;;;;;5068931;28;20592;-89
2022/02/01 00:05:45;;;;;;;4.23;1.83;;;5.40;90.20;;;;;;5089369;28;20180;-88
2022/02/01 00:10:49;;;;;;;4.13;2.20;;;5.50;89.20;;;;;;5077139;28;20195;-91
2022/02/01 00:16:29;;;;;;;3.53;1.80;;;5.60;87.10;;;;;;5063694;28;20203;-91
2022/02/01 00:40:34;;;;;;;1.80;1.47;;;5.40;86.70;;;;;;5101191;28;20191;-90
2022/02/01 00:43:00;;;;;;;2.90;1.57;;;5.40;86.60;;;;;;5091868;28;20199;-90
2022/02/01 00:45:26;;;;;;;4.03;2.00;;;5.50;86.00;;;;;;5095595;28;20187;-88
2022/02/01 00:47:52;;;;;;;3.00;1.63;;;5.50;85.90;;;;;;5067393;28;20266;-88
2022/02/01 00:50:18;;;;;;;3.30;1.97;;;5.50;85.60;;;;;;5083146;28;20183;-88
2022/02/01 00:52:45;;;;;;;2.07;1.53;;;5.50;85.20;;;;;;5077528;28;20191;-88
2022/02/01 00:55:11;;;;;;;5.60;1.80;;;5.50;85.80;;;;;;5089127;28;20218;-89
2022/02/01 00:57:37;;;;;;;4.40;2.07;;;5.40;85.50;;;;;;5066620;28;20246;-88
2022/02/01 01:00:06;;;;;;;2.73;1.60;;;5.50;86.10;;;;;;5088553;28;20234;-88
2022/02/01 01:02:32;;;;;;;3.33;1.80;;;5.50;86.20;;;;;;5087936;28;20229;-89
2022/02/01 01:04:58;;;;;;;4.27;2.13;;;5.50;85.60;;;;;;5078347;28;20191;-91
2022/02/01 01:07:23;;;;;;;3.97;2.13;;;5.50;84.90;;;;;;5061581;28;20285;-88
2022/02/01 01:09:50;;;;;;;4.13;2.00;;;5.50;85.00;;;;;;5079611;28;20298;-89
2022/02/01 01:12:17;;;;;;;5.87;2.07;;;5.50;85.10;;;;;;5070328;28;20198;-90
2022/02/01 01:44:53;;;;;;;4.90;2.60;;;5.50;83.20;;;;;;5094289;28;20213;-88
2022/02/01 01:55:41;;;;;;;5.13;2.07;;;5.40;83.10;;;;;;5089188;28;20242;-88
2022/02/01 01:58:07;;;;;;;5.10;2.10;;;5.40;82.90;;;;;;5068533;28;20242;-88
2022/02/01 02:03:09;;;;;;;4.93;2.37;;;5.50;82.70;;;;;;5100966;28;20509;-88
2022/02/01 02:05:35;;;;;;;6.47;2.60;;;5.40;82.70;;;;;;5106306;28;20198;-88
2022/02/01 02:08:02;;;;;;;8.00;2.53;;;5.40;83.40;;;;;;5093649;28;20219;-89
2022/02/01 02:10:32;;;;;;;7.53;2.53;;;5.50;83.00;;;;;;5089611;28;20176;-88
2022/02/01 02:15:50;;;;;;;10.90;2.73;;;5.40;83.70;;;;;;5090854;28;21132;-88
2022/02/01 02:18:19;;;;;;;7.43;2.70;;;5.30;84.00;;;;;;5069823;28;20274;-89
2022/02/01 02:20:50;;;;;;;6.93;2.87;;;5.30;83.70;;;;;;5090705;28;20198;-88
2022/02/01 02:23:16;;;;;;;8.57;2.93;;;5.30;84.20;;;;;;5075041;28;20211;-88
2022/02/01 02:25:43;;;;;;;7.07;2.73;;;5.20;84.10;;;;;;5088680;28;20203;-88
2022/02/01 02:28:12;;;;;;;9.97;2.90;;;5.30;83.50;;;;;;5068519;28;20206;-89
2022/02/01 02:30:37;;;;;;;10.20;3.27;;;5.30;82.20;;;;;;5088718;28;20194;-88
2022/02/01 02:33:05;;;;;;;6.20;2.63;;;5.30;82.30;;;;;;5081020;28;20194;-89
2022/02/01 02:35:36;;;;;;;7.30;2.67;;;5.20;82.20;;;;;;5082245;28;20206;-89
2022/02/01 02:38:07;;;;;;;7.53;2.27;;;5.20;82.80;;;;;;5074132;28;20215;-88
2022/02/01 02:40:55;;;;;;;8.77;2.73;;;5.20;82.40;;;;;;5084378;28;20203;-88
2022/02/01 02:46:02;;;;;;;8.17;3.17;;;5.20;82.90;;;;;;5099963;28;20554;-91
2022/02/01 02:48:28;;;;;;;12.53;3.10;;;5.20;81.60;;;;;;5098357;28;20199;-91
2022/02/01 02:50:54;;;;;;;8.87;2.70;;;5.10;82.60;;;;;;5066897;28;20191;-90
2022/02/01 02:53:20;;;;;;;10.57;2.77;;;5.10;82.30;;;;;;5097832;28;20841;-90
2022/02/01 02:55:46;;;;;;;7.43;3.03;;;5.00;83.10;;;;;;5087179;28;20194;-90
2022/02/01 02:58:12;;;;;;;10.00;3.10;;;5.00;81.60;;;;;;5094649;28;20218;-90
2022/02/01 03:00:38;;;;;;;7.70;3.40;;;5.00;82.00;;;;;;5097164;28;20266;-90
2022/02/01 03:03:04;;;;;;;9.70;2.77;;;5.00;81.50;;;;;;5086095;28;20198;-90
2022/02/01 03:05:30;;;;;;;9.13;3.00;;;4.90;82.20;;;;;;5063948;28;20761;-91
2022/02/01 03:07:56;;;;;;;12.67;3.10;;;4.90;81.80;;;;;;5083643;28;20199;-91
2022/02/01 03:10:22;;;;;;;11.10;3.07;;;4.90;82.00;;;;;;5099802;28;20187;-91
2022/02/01 03:20:43;;;;;;;8.03;3.17;;;4.90;80.40;;;;;;5092821;28;20232;-92
2022/02/01 03:23:09;;;;;;;7.67;3.07;;;4.90;79.40;;;;;;5098211;28;20245;-91
2022/02/01 03:25:35;;;;;;;11.87;3.30;;;4.90;80.40;;;;;;5082049;28;20175;-91
2022/02/01 03:28:01;;;;;;;10.17;3.30;;;5.00;79.40;;;;;;5096382;28;20199;-90
2022/02/01 03:30:27;;;;;;;12.10;3.00;;;5.00;78.90;;;;;;5099243;28;20202;-90
2022/02/01 03:32:52;;;;;;;10.60;3.40;;;4.90;79.80;;;;;;5097985;28;20180;-90
2022/02/01 03:35:18;;;;;;;11.27;3.83;;;4.70;79.50;;;;;;5098470;28;20707;-90
2022/02/01 03:37:44;;;;;;;9.77;3.17;;;4.80;79.10;;;;;;5081406;28;20238;-90
2022/02/01 03:40:15;;;;;;;10.37;3.77;;;4.80;78.30;;;;;;5071472;28;20183;-90
2022/02/01 03:42:41;;;;;;;8.53;2.97;;;4.80;77.90;;;;;;5096460;28;20202;-90
2022/02/01 03:45:07;;;;;;;9.40;3.60;;;4.80;77.60;;;;;;5099302;28;20238;-90
2022/02/01 03:47:34;;;;;;;10.90;3.37;;;4.80;75.80;;;;;;5083526;28;20183;-91
2022/02/01 03:50:00;;;;;;;9.60;3.80;;;4.80;77.20;;;;;;5096472;28;20175;-92
2022/02/01 03:52:28;;;;;;;13.30;3.30;;;4.60;76.20;;;;;;5090230;28;20258;-91
2022/02/01 03:54:53;;;;;;;8.13;3.77;;;4.60;77.20;;;;;;5112312;28;20211;-92
2022/02/01 03:57:19;;;;;;;10.00;3.40;;;4.70;76.00;;;;;;5078978;28;20222;-90
2022/02/01 03:59:45;;;;;;;8.27;3.10;;;4.70;75.30;;;;;;5084003;28;20275;-90
2022/02/01 04:02:13;;;;;;;8.13;2.83;;;4.70;76.00;;;;;;5093066;28;20222;-90
2022/02/01 04:04:39;;;;;;;6.57;2.73;;;4.70;75.10;;;;;;5078404;28;20528;-90
2022/02/01 04:07:06;;;;;;;10.67;2.87;;;4.70;75.60;;;;;;5098155;28;20183;-91
2022/02/01 04:09:33;;;;;;;8.87;2.97;;;4.60;75.50;;;;;;5103094;28;20214;-90
2022/02/01 04:12:01;;;;;;;7.43;3.27;;;4.60;75.30;;;;;;5092401;28;20177;-90
2022/02/01 04:14:30;;;;;;;8.43;2.90;;;4.70;74.30;;;;;;5101383;28;20224;-90
2022/02/01 04:16:58;;;;;;;7.30;3.00;;;4.70;74.50;;;;;;5088325;28;20186;-90
2022/02/01 04:19:25;;;;;;;8.97;3.10;;;4.60;74.90;;;;;;5099900;28;20213;-91
2022/02/01 04:22:00;;;;;;;12.53;3.40;;;4.70;74.70;;;;;;5100637;28;23089;-90
2022/02/01 04:24:27;;;;;;;8.77;2.80;;;4.70;75.40;;;;;;5086373;28;20170;-90
2022/02/01 04:26:53;;;;;;;9.27;3.03;;;4.60;75.20;;;;;;5098451;28;20274;-91
2022/02/01 04:29:19;;;;;;;13.13;3.20;;;4.60;76.00;;;;;;5079525;28;20333;-90
2022/02/01 04:31:45;;;;;;;10.73;3.60;;;4.60;76.40;;;;;;5103332;28;20202;-90
2022/02/01 04:34:11;;;;;;;11.17;3.50;;;4.60;76.30;;;;;;5105291;28;20673;-90
2022/02/01 04:36:37;;;;;;;14.00;3.87;;;4.60;77.20;;;;;;5105292;28;20191;-90
2022/02/01 04:39:03;;;;;;;8.03;3.03;;;4.50;77.40;;;;;;5096179;28;20342;-90
2022/02/01 04:41:29;;;;;;;7.60;3.43;;;4.50;77.20;;;;;;5102685;28;20183;-90
2022/02/01 04:43:57;;;;;;;10.83;3.20;;;4.60;77.00;;;;;;5084937;28;20237;-90
2022/02/01 04:46:23;;;;;;;9.67;3.40;;;4.50;77.20;;;;;;5086093;28;20185;-89
2022/02/01 04:48:49;;;;;;;9.47;3.10;;;4.50;77.00;;;;;;5104168;28;20186;-90
2022/02/01 04:51:16;;;;;;;10.17;3.03;;;4.50;77.70;;;;;;5083554;28;20201;-90
2022/02/01 04:53:43;;;;;;;14.33;3.50;;;4.40;77.00;;;;;;5101245;28;20183;-90
2022/02/01 04:56:08;;;;;;;7.07;2.57;;;4.40;76.80;;;;;;5101937;28;20182;-89
2022/02/01 04:58:34;;;;;;;7.80;3.50;;;4.40;76.50;;;;;;5089368;28;20721;-89
2022/02/01 05:01:00;;;;;;;6.00;3.33;;;4.40;76.50;;;;;;5094662;28;20259;-90
2022/02/01 05:03:26;;;;;;;7.67;2.87;;;4.40;76.70;;;;;;5083000;28;20443;-89
2022/02/01 05:05:52;;;;;;;11.90;3.37;;;4.40;76.90;;;;;;5071706;28;20183;-89
2022/02/01 05:08:17;;;;;;;7.70;2.53;;;4.40;76.80;;;;;;5095566;28;20241;-89
2022/02/01 05:10:44;;;;;;;8.03;3.07;;;4.50;75.50;;;;;;5080501;28;20198;-88
2022/02/01 05:15:39;;;;;;;11.33;2.87;;;4.40;76.90;;;;;;5092050;28;20670;-89
2022/02/01 05:18:05;;;;;;;9.33;3.00;;;4.40;76.00;;;;;;5068075;28;20236;-89
2022/02/01 05:20:55;;;;;;;7.97;2.97;;;4.40;76.20;;;;;;5084709;28;20299;-89
2022/02/01 05:23:23;;;;;;;7.33;2.90;;;4.30;75.60;;;;;;5091978;28;20203;-88
2022/02/01 05:25:49;;;;;;;10.60;2.80;;;4.20;77.00;;;;;;5094857;28;20256;-89
2022/02/01 05:28:14;;;;;;;10.70;3.77;;;4.20;77.80;;;;;;5077727;28;20207;-89
2022/02/01 05:30:40;;;;;;;7.83;2.73;;;4.20;77.50;;;;;;5093107;28;20270;-89
2022/02/01 05:33:06;;;;;;;8.70;3.03;;;4.20;77.10;;;;;;5089385;28;20199;-88
2022/02/01 05:35:32;;;;;;;12.00;3.13;;;4.20;76.90;;;;;;5086917;28;20197;-88
2022/02/01 05:37:59;;;;;;;12.67;5.00;;;4.20;76.20;;;;;;5054766;28;20230;-88
2022/02/01 05:40:26;;;;;;;7.27;2.73;;;4.20;76.40;;;;;;5087989;28;20186;-88
2022/02/01 05:43:05;;;;;;;7.53;2.73;;;4.20;76.30;;;;;;5074770;28;20217;-88
2022/02/01 05:45:35;;;;;;;11.10;2.83;;;4.10;77.90;;;;;;5090360;28;20190;-88
2022/02/01 05:48:02;;;;;;;10.30;3.10;;;3.80;80.00;;;;;;5088669;28;20195;-88
2022/02/01 05:50:29;;;;;;;13.73;3.50;;;3.70;80.70;;;;;;5071708;28;20196;-88
2022/02/01 05:52:56;;;;;;;7.53;2.40;;;3.80;80.70;;;;;;5086844;28;20202;-89
2022/02/01 05:55:21;;;;;;;5.07;2.30;;;3.70;80.80;;;;;;5094325;28;20673;-89
2022/02/01 05:57:47;;;;;;;6.50;3.10;;;3.70;80.10;;;;;;5096504;28;20198;-89
2022/02/01 06:00:15;;;;;;;7.47;2.63;;;3.70;80.10;;;;;;5066344;28;20198;-89
2022/02/01 06:02:42;;;;;;;10.57;3.07;;;3.70;79.80;;;;;;5083878;28;20214;-89
2022/02/01 06:05:08;;;;;;;6.97;3.23;;;3.60;80.30;;;;;;5093770;28;20193;-89
2022/02/01 06:07:34;;;;;;;5.87;3.00;;;3.60;79.70;;;;;;5088053;28;20456;-88
2022/02/01 06:09:59;;;;;;;9.23;2.80;;;3.60;79.70;;;;;;5066703;28;20197;-89
2022/02/01 06:12:25;;;;;;;8.50;2.83;;;3.60;79.60;;;;;;5084170;28;20282;-89
2022/02/01 06:14:51;;;;;;;9.60;3.13;;;3.70;79.10;;;;;;5070172;28;20299;-88
2022/02/01 06:17:16;;;;;;;8.73;3.20;;;3.70;79.60;;;;;;5063286;28;20346;-89
2022/02/01 06:19:42;;;;;;;9.23;2.90;;;3.70;80.00;;;;;;5089734;28;20693;-88
2022/02/01 06:22:08;;;;;;;8.37;2.97;;;3.60;80.50;;;;;;5085852;28;20559;-90
2022/02/01 06:24:34;;;;;;;8.20;3.30;;;3.80;80.20;;;;;;5090030;28;20214;-86
2022/02/01 06:27:00;;;;;;;10.83;4.07;;;3.70;81.40;;;;;;5057225;28;20192;-89
2022/02/01 06:29:26;;;;;;;6.47;3.10;;;3.70;82.00;;;;;;5072725;28;20259;-89
2022/02/01 06:31:51;;;;;;;7.00;2.97;;;3.60;82.30;;;;;;5070496;28;20271;-89
2022/02/01 06:34:17;;;;;;;10.73;3.20;;;3.70;81.40;;;;;;5077594;28;20262;-89
2022/02/01 06:36:43;;;;;;;8.03;2.70;;;3.60;82.90;;;;;;5082884;28;20249;-88
2022/02/01 06:39:08;;;;;;;5.10;2.63;;;3.50;84.20;;;;;;5085746;28;20210;-89
2022/02/01 06:41:38;;;;;;;9.00;2.83;;;3.60;83.70;;;;;;5090686;28;20202;-89
2022/02/01 06:44:05;;;;;;;9.93;2.43;;;3.40;84.60;;;;;;5074389;28;20361;-88
2022/02/01 06:46:31;;;;;;;7.73;2.40;;;3.60;82.70;;;;;;5089077;28;20186;-88
2022/02/01 06:48:57;;;;;;;4.63;2.27;;;3.70;82.10;;;;;;5091820;28;20308;-89
2022/02/01 06:51:23;;;;;;;9.37;2.87;;;3.70;81.90;;;;;;5087469;28;20197;-90
2022/02/01 06:53:50;;;;;;;4.33;2.37;;;3.70;82.10;;;;;;5088781;28;20187;-89
2022/02/01 06:56:23;;;;;;;9.60;2.70;;;3.70;83.00;;;;;;5081702;28;20199;-88
2022/02/01 06:58:48;;;;;;;8.83;3.40;;;3.50;85.90;;;;;;5090333;28;20226;-88
2022/02/01 07:01:14;;;;;;;9.40;2.97;;;3.50;86.60;;;;;;5094388;28;20190;-89
2022/02/01 07:03:40;;;;;;;13.53;2.97;;;3.40;88.00;;;;;;5098639;28;20207;-89
2022/02/01 07:06:11;;;;;;;5.40;3.30;;;3.50;88.50;;;;;;5092204;28;20179;-90
2022/02/01 07:08:38;;;;;;;8.37;3.17;;;3.60;88.80;;;;;;5077210;28;20701;-90
2022/02/01 07:11:04;;;;;;;9.33;3.07;;;3.50;89.40;;;;;;5086293;28;20214;-90
2022/02/01 07:13:30;;;;;;;10.40;3.93;;;3.50;90.50;;;;;;5063548;28;20187;-91
2022/02/01 07:15:56;;;;;;;6.93;2.90;;;3.50;90.30;;;;;;5090383;28;20199;-90
2022/02/01 07:18:21;;;;;;;9.13;3.13;;;3.50;90.00;;;;;;5091161;28;20208;-91
2022/02/01 07:20:47;;;;;;;7.70;3.37;;;3.50;90.60;;;;;;5080578;28;20212;-90
2022/02/01 07:23:20;;;;;;;9.27;3.20;;;3.50;91.20;;;;;;5082818;28;20210;-90
2022/02/01 07:25:47;;;;;;;10.67;3.37;;;3.40;92.50;;;;;;5091396;28;20255;-91
2022/02/01 07:28:16;;;;;;;14.80;3.80;;;3.30;92.40;;;;;;5073641;28;20238;-89
2022/02/01 07:30:45;;;;;;;9.97;3.27;;;3.30;92.90;;;;;;5065543;28;20202;-90
2022/02/01 07:33:11;;;;;;;11.97;3.60;;;3.30;93.60;;;;;;5087954;28;20203;-91
2022/02/01 07:35:38;;;;;;;7.87;3.00;;;3.30;93.30;;;;;;5103716;28;20171;-89
2022/02/01 07:38:08;;;;;;;9.33;3.53;;;3.30;93.20;;;;;;5078005;28;20206;-90
2022/02/01 07:40:35;;;;;;;10.10;3.33;;;3.30;93.60;;;;;;5057178;28;20195;-89
2022/02/01 07:43:01;;;;;;;9.33;3.23;;;3.40;93.50;;;;;;5061343;28;20215;-89
2022/02/01 07:45:29;;;;;;;11.43;3.67;;;3.40;93.00;;;;;;5089265;28;20210;-89
2022/02/01 07:47:57;;;;;;;15.87;4.00;;;3.40;93.90;;;;;;5080014;28;20211;-89
2022/02/01 07:50:23;;;;;;;11.33;3.70;;;3.40;94.50;;;;;;5061282;28;20187;-90
2022/02/01 07:52:49;;;;;;;11.23;3.57;;;3.30;95.10;;;;;;5087277;28;20196;-89
2022/02/01 07:55:14;;;;;;;12.50;4.07;;;3.20;95.80;;;;;;5061364;28;20253;-90
2022/02/01 07:57:40;;;;;;;6.30;3.90;;;3.30;95.90;;;;;;5070924;28;20202;-90
2022/02/01 08:00:07;;;;;;;9.80;4.20;;;3.30;96.50;;;;;;5088181;28;20250;-89
2022/02/01 08:02:34;;;;;;;9.97;4.10;;;3.30;96.60;;;;;;5077925;28;20203;-90
2022/02/01 08:05:00;;;;;;;14.07;4.30;;;3.30;96.70;;;;;;5071779;28;20182;-90
2022/02/01 08:07:26;;;;;;;10.90;3.27;;;3.30;97.10;;;;;;5075411;28;20684;-90
2022/02/01 08:09:56;;;;;;;10.43;3.57;;;3.30;97.20;;;;;;5081031;28;20203;-90
2022/02/01 08:16:00;;;;;;;7.83;3.80;;;3.20;97.60;;;;;;5089646;28;20248;-90
2022/02/01 08:20:14;;;;;;;11.07;3.43;;;3.30;96.80;;;;;;5080780;28;20259;-88
2022/02/01 08:25:13;;;;;;;6.67;3.00;;;3.50;96.30;;;;;;5091968;28;20191;-90
2022/02/01 08:27:40;;;;;;;9.20;3.47;;;3.60;95.00;;;;;;5092378;28;20239;-89
2022/02/01 08:30:07;;;;;;;10.50;3.07;;;3.60;96.00;;;;;;5089729;28;20206;-90
2022/02/01 08:32:33;;;;;;;9.23;3.87;;;3.60;95.70;;;;;;5086836;28;20244;-89
2022/02/01 08:34:59;;;;;;;9.97;3.43;;;3.50;95.60;;;;;;5109328;28;20212;-89
2022/02/01 08:37:25;;;;;;;8.87;3.27;;;3.60;95.60;;;;;;5088636;28;20247;-91
2022/02/01 08:39:51;;;;;;;10.00;3.60;;;3.50;95.50;;;;;;5094468;28;20839;-90
2022/02/01 08:42:18;;;;;;;9.13;3.57;;;3.60;95.30;;;;;;5066696;28;20199;-90
2022/02/01 08:44:44;;;;;;;6.97;3.23;;;3.50;94.80;;;;;;5077801;28;20222;-91
2022/02/01 08:47:12;;;;;;;18.50;3.87;;;3.60;94.80;;;;;;5084759;28;20201;-91
2022/02/01 08:49:39;;;;;;;10.10;3.37;;;3.50;95.30;;;;;;5066648;28;20217;-92
2022/02/01 08:52:08;;;;;;;10.10;2.97;;;3.60;94.90;;;;;;5062452;28;20206;-92
2022/02/01 08:54:36;;;;;;;12.63;3.70;;;3.60;94.20;;;;;;5096229;28;20214;-91
2022/02/01 08:57:22;;;;;;;9.63;2.90;;;3.60;94.20;;;;;;5097589;28;20191;-91
2022/02/01 08:59:49;;;;;;;9.77;3.10;;;3.50;94.60;;;;;;5069295;28;20673;-90
2022/02/01 09:02:18;;;;;;;6.53;3.33;;;3.50;94.70;;;;;;5047057;28;20545;-90
2022/02/01 09:04:43;;;;;;;8.87;2.80;;;3.50;93.90;;;;;;5078356;28;20199;-90
2022/02/01 09:07:10;;;;;;;7.43;3.50;;;3.50;94.60;;;;;;5083790;28;20187;-90
2022/02/01 09:09:36;;;;;;;6.97;2.90;;;3.60;93.00;;;;;;5082661;28;20211;-89
2022/02/01 09:12:03;;;;;;;7.10;3.17;;;3.60;92.90;;;;;;5091183;28;20256;-91
2022/02/01 09:14:30;;;;;;;8.80;3.40;;;3.60;92.20;;;;;;5094463;28;20546;-90
2022/02/01 09:16:56;;;;;;;12.43;3.83;;;3.70;91.40;;;;;;5088767;28;20198;-90
2022/02/01 09:19:22;;;;;;;14.37;3.30;;;3.80;91.20;;;;;;5099024;28;20320;-90
2022/02/01 09:21:48;;;;;;;10.70;3.20;;;3.80;91.40;;;;;;5081453;28;20211;-90
2022/02/01 09:24:14;;;;;;;8.97;3.30;;;3.90;91.10;;;;;;5086323;28;20339;-90
2022/02/01 09:26:40;;;;;;;6.37;2.87;;;3.90;89.80;;;;;;5104645;28;20312;-88
2022/02/01 09:29:07;;;;;;;9.03;3.07;;;3.90;90.10;;;;;;5081333;28;20264;-91
2022/02/01 09:31:33;;;;;;;5.63;2.67;;;3.90;89.90;;;;;;5088245;28;20209;-91
2022/02/01 09:33:59;;;;;;;9.83;3.33;;;3.80;90.00;;;;;;5087144;28;20188;-90
2022/02/01 09:36:24;;;;;;;8.20;2.77;;;3.70;90.70;;;;;;5096025;28;20219;-91
2022/02/01 09:38:52;;;;;;;10.83;3.13;;;3.90;89.90;;;;;;5072500;28;20214;-91
2022/02/01 09:41:18;;;;;;;9.10;3.60;;;3.80;90.30;;;;;;5071269;28;20183;-91
2022/02/01 09:43:44;;;;;;;8.50;3.50;;;3.80;90.20;;;;;;5083946;28;20639;-91
2022/02/01 09:46:10;;;;;;;11.77;2.63;;;3.90;89.50;;;;;;5091935;28;20194;-90
2022/02/01 09:48:37;;;;;;;7.67;3.03;;;3.90;88.90;;;;;;5083763;28;20268;-91
2022/02/01 09:51:04;;;;;;;12.57;3.57;;;4.00;88.60;;;;;;5097075;28;20179;-91
2022/02/01 09:53:30;;;;;;;9.80;2.93;;;4.00;87.90;;;;;;5093244;28;20210;-89
2022/02/01 09:55:56;;;;;;;10.03;3.03;;;4.00;86.70;;;;;;5081822;28;20195;-90
2022/02/01 09:58:33;;;;;;;10.67;3.03;;;4.00;85.80;;;;;;5079950;28;20219;-91
2022/02/01 10:01:02;;;;;;;7.50;3.23;;;4.10;86.00;;;;;;5077826;28;20194;-88
2022/02/01 10:03:28;;;;;;;10.93;3.43;;;4.10;86.20;;;;;;5090702;28;20307;-91
2022/02/01 10:06:11;;;;;;;7.50;2.97;;;4.10;86.20;;;;;;5082634;28;20324;-90
2022/02/01 10:08:39;;;;;;;8.93;3.00;;;4.10;85.40;;;;;;5072406;28;20717;-90
2022/02/01 10:11:10;;;;;;;11.27;3.43;;;4.20;84.80;;;;;;5089519;28;20198;-90
2022/02/01 10:13:43;;;;;;;8.00;2.87;;;4.20;84.40;;;;;;5079963;28;20188;-90
2022/02/01 10:16:27;;;;;;;11.67;3.90;;;4.20;84.00;;;;;;5078796;28;20209;-89
2022/02/01 10:18:53;;;;;;;7.83;2.50;;;4.10;84.40;;;;;;5082190;28;20207;-90
2022/02/01 10:21:19;;;;;;;6.97;3.03;;;4.20;82.30;;;;;;5092036;28;20203;-90
2022/02/01 10:23:46;;;;;;;9.13;2.87;;;4.30;83.10;;;;;;5096969;28;20207;-91
2022/02/01 10:26:19;;;;;;;13.07;3.60;;;4.20;86.30;;;;;;5098524;28;20202;-91
2022/02/01 10:29:03;;;;;;;11.80;3.47;;;4.20;86.20;;;;;;5059790;28;20276;-92
2022/02/01 10:31:43;;;;;;;6.77;2.93;;;4.20;85.00;;;;;;5055529;28;20214;-91
2022/02/01 10:37:24;;;;;;;9.63;3.57;;;4.30;85.90;;;;;;5078170;28;20218;-90
2022/02/01 10:40:05;;;;;;;8.53;3.00;;;4.30;83.90;;;;;;5092056;28;20575;-92
2022/02/01 10:42:31;;;;;;;6.73;3.60;;;4.30;85.20;;;;;;5071295;28;20219;-92
2022/02/01 10:44:59;;;;;;;10.10;3.17;;;4.40;81.10;;;;;;5091169;28;20198;-92
2022/02/01 10:47:40;;;;;;;8.97;3.20;;;4.40;80.00;;;;;;5094251;28;20178;-90
2022/02/01 10:50:12;;;;;;;7.80;2.80;;;4.30;79.70;;;;;;5080963;28;20187;-92
2022/02/01 10:52:42;;;;;;;8.57;2.93;;;4.50;80.30;;;;;;5076393;28;20198;-91
2022/02/01 10:55:09;;;;;;;7.20;3.33;;;4.40;80.20;;;;;;5084042;28;20195;-91
2022/02/01 10:57:35;;;;;;;15.23;3.23;;;4.40;77.90;;;;;;5084953;28;20742;-91
2022/02/01 11:00:02;;;;;;;7.50;2.90;;;4.40;79.00;;;;;;5070440;28;20207;-91
2022/02/01 11:02:29;;;;;;;10.17;3.20;;;4.30;81.70;;;;;;5092750;28;20215;-92
2022/02/01 11:04:58;;;;;;;6.00;3.10;;;4.30;82.90;;;;;;5065233;28;20194;-90
2022/02/01 11:07:23;;;;;;;5.63;3.10;;;4.30;83.60;;;;;;5080216;28;20196;-90
2022/02/01 11:09:50;;;;;;;6.80;2.73;;;4.20;84.30;;;;;;5069341;28;20258;-89
2022/02/01 11:12:16;;;;;;;10.80;3.10;;;4.10;85.20;;;;;;5092384;28;20179;-90
2022/02/01 11:14:46;;;;;;;8.13;2.90;;;4.00;86.10;;;;;;5093965;28;20182;-90
2022/02/01 11:17:21;;;;;;;7.53;3.27;;;4.00;88.40;;;;;;5089662;28;20198;-91
2022/02/01 11:19:58;;;;;;;5.83;2.63;;;3.90;92.50;;;;;;5078152;28;20669;-91
2022/02/01 11:22:37;;;;;;;6.47;3.17;;;3.80;91.00;;;;;;5088520;28;20203;-91
2022/02/01 11:25:25;;;;;;;8.03;2.97;;;3.90;92.10;;;;;;5083244;28;20286;-92
2022/02/01 11:30:43;;;;;;;8.17;3.30;;;3.80;93.40;;;;;;5085505;28;20198;-90
2022/02/01 11:33:11;;;;;;;5.77;2.90;;;3.80;93.60;;;;;;5062051;28;20190;-91
2022/02/01 11:35:38;;;;;;;5.60;2.40;;;3.70;92.60;;;;;;5096823;28;20185;-92
2022/02/01 11:38:05;;;;;;;9.57;3.00;;;3.80;90.30;;;;;;5090745;28;20219;-91
2022/02/01 11:40:45;;;;;;;5.97;2.33;;;3.70;91.40;;;;;;5089178;28;20187;-90
2022/02/01 11:43:12;;;;;;;7.37;2.83;;;3.90;90.20;;;;;;5086616;28;20765;-91
2022/02/01 11:45:55;;;;;;;10.77;3.30;;;3.90;92.10;;;;;;5080105;28;20198;-91
2022/02/01 11:48:27;;;;;;;10.87;3.33;;;3.90;90.60;;;;;;5078730;28;20199;-92
2022/02/01 11:50:58;;;;;;;11.03;3.73;;;4.00;90.90;;;;;;5095228;28;20191;-92
2022/02/01 11:53:25;;;;;;;7.83;3.10;;;4.00;90.50;;;;;;5062814;28;20198;-91
2022/02/01 11:55:53;;;;;;;6.97;2.67;;;3.90;90.70;;;;;;5081946;28;20183;-91
2022/02/01 11:58:41;;;;;;;10.00;3.17;;;3.90;88.80;;;;;;5083612;28;20678;-91
2022/02/01 12:01:25;;;;;;;6.67;2.53;;;4.00;90.10;;;;;;5080426;28;20191;-91
2022/02/01 12:04:04;;;;;;;10.07;2.73;;;4.00;88.50;;;;;;5078707;28;20272;-91
2022/02/01 12:06:45;;;;;;;7.70;2.97;;;4.00;90.20;;;;;;5090394;28;20248;-92
2022/02/01 12:09:20;;;;;;;7.03;2.70;;;3.80;89.80;;;;;;5082057;28;20674;-91
2022/02/01 12:11:47;;;;;;;5.47;2.47;;;3.90;90.60;;;;;;5072320;28;20179;-90
2022/02/01 12:14:13;;;;;;;8.60;2.63;;;3.90;89.00;;;;;;5085345;28;20199;-90
2022/02/01 12:16:49;;;;;;;7.40;2.60;;;3.90;90.00;;;;;;5076021;28;20211;-91
2022/02/01 12:19:36;;;;;;;19.33;3.80;;;3.80;90.50;;;;;;5064768;28;20202;-90
2022/02/01 12:22:31;;;;;;;11.10;3.10;;;3.80;91.80;;;;;;5091376;28;20703;-90
2022/02/01 12:25:05;;;;;;;7.47;2.77;;;3.70;94.10;;;;;;5071630;28;20190;-89
2022/02/01 12:27:44;;;;;;;8.13;2.63;;;3.70;94.20;;;;;;5075652;28;20197;-91
2022/02/01 12:30:10;;;;;;;6.60;3.10;;;3.70;94.60;;;;;;5082881;28;20187;-89
2022/02/01 12:32:47;;;;;;;10.00;2.77;;;3.60;94.60;;;;;;5074812;28;20661;-92
2022/02/01 12:35:12;;;;;;;11.90;2.73;;;3.70;95.50;;;;;;5100276;28;20197;-92
2022/02/01 12:37:38;;;;;;;7.13;2.87;;;3.60;97.90;;;;;;5075815;28;20198;-89
2022/02/01 12:40:10;;;;;;;3.67;2.03;;;3.40;99.90;;;;;;5077524;28;20187;-90
2022/02/01 12:42:47;;;;;;;8.83;2.63;;;3.30;99.90;;;;;;5091493;28;20321;-91
2022/02/01 12:48:02;;;;;;;10.00;2.60;;;3.30;99.90;;;;;;5085142;28;20230;-90
2022/02/01 12:50:28;;;;;;;4.20;2.70;;;3.30;99.90;;;;;;5062933;28;20195;-90
2022/02/01 12:53:02;;;;;;;4.60;2.30;;;3.30;99.90;;;;;;5086236;28;20191;-90
2022/02/01 12:55:28;;;;;;;4.83;2.50;;;3.20;99.90;;;;;;5075191;28;20203;-91
2022/02/01 12:57:54;;;;;;;9.10;3.47;;;3.20;99.90;;;;;;5067113;28;20262;-91
2022/02/01 13:00:23;;;;;;;7.70;2.77;;;3.20;99.90;;;;;;5073151;28;20199;-91
2022/02/01 13:02:55;;;;;;;7.97;3.70;;;3.10;99.90;;;;;;5088240;28;20207;-91
2022/02/01 13:05:21;;;;;;;6.83;3.03;;;3.00;99.90;;;;;;5074030;28;20185;-91
2022/02/01 13:21:17;;;;;;;7.40;3.00;;;2.80;99.90;;;;;;5050305;28;20188;-92
2022/02/01 13:23:44;;;;;;;6.30;3.20;;;2.70;99.90;;;;;;5096955;28;20304;-90
2022/02/01 13:26:32;;;;;;;6.80;2.53;;;2.60;99.90;;;;;;5080790;28;20329;-92
2022/02/01 13:29:09;;;;;;;8.03;3.23;;;2.60;99.90;;;;;;5081512;28;20211;-90
2022/02/01 13:31:47;;;;;;;11.07;3.60;;;2.50;99.90;;;;;;5074257;28;20179;-91
2022/02/01 13:34:14;;;;;;;8.40;3.30;;;2.50;99.90;;;;;;5071351;28;20247;-92
2022/02/01 13:36:48;;;;;;;6.20;2.67;;;2.60;99.90;;;;;;5092568;28;20635;-89
2022/02/01 13:39:32;;;;;;;5.73;2.93;;;2.60;99.90;;;;;;5052140;28;20211;-92
2022/02/01 13:42:09;;;;;;;11.23;3.83;;;2.50;99.90;;;;;;5093506;28;20179;-93
2022/02/01 13:44:36;;;;;;;6.53;3.13;;;2.50;99.90;;;;;;5064452;28;20210;-91
2022/02/01 13:47:06;;;;;;;7.97;3.17;;;2.50;99.90;;;;;;5101237;28;20270;-92
2022/02/01 13:49:33;;;;;;;9.07;3.50;;;2.50;99.90;;;;;;5098521;28;20207;-93
2022/02/01 13:52:00;;;;;;;8.57;3.63;;;2.40;99.90;;;;;;5067147;28;20578;-92
2022/02/01 13:54:45;;;;;;;10.10;3.27;;;2.50;99.90;;;;;;5075373;28;20190;-92
2022/02/01 13:57:16;;;;;;;11.70;3.80;;;2.50;99.90;;;;;;5084846;28;20194;-93
2022/02/01 13:59:43;;;;;;;8.37;3.50;;;2.50;99.90;;;;;;5095085;28;20257;-92
2022/02/01 14:02:16;;;;;;;11.10;3.90;;;2.40;99.90;;;;;;5109022;28;20179;-92
2022/02/01 14:04:58;;;;;;;4.23;3.00;;;2.50;99.90;;;;;;5072156;28;20222;-92
2022/02/01 14:07:38;;;;;;;8.97;3.63;;;2.40;99.90;;;;;;5098610;28;20183;-93
2022/02/01 14:24:20;;;;;;;8.03;3.20;;;2.40;99.90;;;;;;5083567;28;20272;-92
2022/02/01 14:28:57;;;;;;;5.23;3.07;;;2.30;99.90;;;;;;5093596;28;20195;-93
2022/02/01 14:34:13;;;;;;;7.50;2.37;;;2.30;99.90;;;;;;5083782;28;20193;-91
2022/02/01 14:36:41;;;;;;;4.60;3.00;;;2.30;99.90;;;;;;5085445;28;20183;-92
2022/02/01 14:44:45;;;;;;;8.10;3.07;;;2.50;99.90;;;;;;5084220;28;20217;-92
2022/02/01 14:47:17;;;;;;;8.23;3.20;;;2.40;99.90;;;;;;5055876;28;20633;-92
2022/02/01 14:49:44;;;;;;;6.27;2.80;;;2.40;99.90;;;;;;5077867;28;20207;-92
2022/02/01 14:52:10;;;;;;;4.47;2.80;;;2.50;99.90;;;;;;5102574;28;20694;-92
2022/02/01 14:54:46;;;;;;;4.33;2.80;;;2.40;99.90;;;;;;5100591;28;20305;-93
2022/02/01 15:13:22;;;;;;;7.23;2.97;;;2.40;99.90;;;;;;5083618;28;20179;-91
2022/02/01 15:15:48;;;;;;;7.70;3.17;;;2.50;99.90;;;;;;5076319;28;20187;-92
2022/02/01 15:18:14;;;;;;;8.00;3.03;;;2.50;99.90;;;;;;5100480;28;20257;-91
2022/02/01 15:20:40;;;;;;;7.33;3.27;;;2.50;99.90;;;;;;5081221;28;20195;-90
2022/02/01 15:23:05;;;;;;;6.60;3.20;;;2.40;99.90;;;;;;5097520;28;20215;-94
2022/02/01 15:25:31;;;;;;;7.07;3.03;;;2.40;99.90;;;;;;5073548;28;20240;-91
2022/02/01 15:27:57;;;;;;;7.13;3.13;;;2.40;99.90;;;;;;5065201;28;20214;-92
2022/02/01 15:30:23;;;;;;;7.47;3.13;;;2.40;99.90;;;;;;5097187;28;20179;-92
2022/02/01 15:32:49;;;;;;;6.53;3.07;;;2.40;99.90;;;;;;5096471;28;20183;-92
2022/02/01 15:35:17;;;;;;;6.70;3.27;;;2.40;99.90;;;;;;5070066;28;20187;-92
2022/02/01 15:37:50;;;;;;;6.67;3.10;;;2.50;99.90;;;;;;5078097;28;20182;-92